createdAt,value
2019-04-07T00:00:36.153Z,10.80
2019-04-07T00:03:24.993Z,10.71
2019-04-07T00:06:14.878Z,10.65
2019-04-07T00:09:06.035Z,10.55
2019-04-07T00:11:55.224Z,10.56
2019-04-07T00:14:44.732Z,10.46
2019-04-07T00:17:33.737Z,10.42
2019-04-07T00:20:23.635Z,10.45
2019-04-07T00:23:13.131Z,10.46
2019-04-07T00:26:02.615Z,10.40
2019-04-07T00:28:51.183Z,10.32
2019-04-07T00:31:39.884Z,10.28
2019-04-07T00:34:28.022Z,10.17
2019-04-07T00:37:16.981Z,10.12
2019-04-07T00:40:08.631Z,10.10
2019-04-07T00:42:58.212Z,10.05
2019-04-07T00:45:48.114Z,9.98
2019-04-07T00:48:36.940Z,10.02
2019-04-07T00:51:25.774Z,9.97
2019-04-07T00:54:14.110Z,9.92
2019-04-07T00:57:03.006Z,9.90
2019-04-07T00:59:51.834Z,9.93
2019-04-07T01:02:40.810Z,9.90
2019-04-07T01:05:38.152Z,9.82
2019-04-07T01:08:20.853Z,9.78
2019-04-07T01:11:09.829Z,9.76
2019-04-07T01:13:58.238Z,9.71
2019-04-07T01:16:47.223Z,9.69
2019-04-07T01:19:36.610Z,9.74
2019-04-07T01:22:25.799Z,9.64
2019-04-07T01:25:14.887Z,9.51
2019-04-07T01:28:04.452Z,9.52
2019-04-07T01:30:53.359Z,9.55
2019-04-07T01:33:42.225Z,9.51
2019-04-07T01:36:32.622Z,9.44
2019-04-07T01:39:22.035Z,9.44
2019-04-07T01:42:25.630Z,9.39
2019-04-07T01:45:39.753Z,9.37
2019-04-07T01:48:46.846Z,9.40
2019-04-07T01:51:43.043Z,9.31
2019-04-07T01:54:50.052Z,9.28
2019-04-07T01:57:47.711Z,9.17
2019-04-07T02:01:08.249Z,9.07
2019-04-07T02:04:06.027Z,8.85
2019-04-07T02:07:20.275Z,8.89
2019-04-07T02:10:31.864Z,9.03
2019-04-07T02:13:43.010Z,9.13
2019-04-07T02:16:47.757Z,8.93
2019-04-07T02:19:46.195Z,8.85
2019-04-07T02:23:00.831Z,8.78
2019-04-07T02:26:04.761Z,8.77
2019-04-07T02:29:02.686Z,8.92
2019-04-07T02:31:58.606Z,8.77
2019-04-07T02:35:06.040Z,8.70
2019-04-07T02:38:03.234Z,8.58
2019-04-07T02:41:09.019Z,8.57
2019-04-07T02:44:23.922Z,8.46
2019-04-07T02:47:31.279Z,8.53
2019-04-07T02:50:36.760Z,8.69
2019-04-07T02:53:51.039Z,8.76
2019-04-07T02:57:08.417Z,8.71
2019-04-07T03:00:08.682Z,8.69
2019-04-07T03:03:07.631Z,8.75
2019-04-07T03:06:37.272Z,8.79
2019-04-07T03:09:31.150Z,8.68
2019-04-07T03:12:34.811Z,8.63
2019-04-07T03:15:54.895Z,8.53
2019-04-07T03:18:52.640Z,8.51
2019-04-07T03:21:54.351Z,8.53
2019-04-07T03:25:00.719Z,8.54
2019-04-07T03:28:08.792Z,8.41
2019-04-07T03:31:14.769Z,8.36
2019-04-07T03:34:35.790Z,8.28
2019-04-07T03:37:43.022Z,8.21
2019-04-07T03:40:44.562Z,8.11
2019-04-07T03:43:41.792Z,8.11
2019-04-07T03:46:59.914Z,8.17
2019-04-07T03:49:55.534Z,8.19
2019-04-07T03:52:49.568Z,8.40
2019-04-07T03:56:13.474Z,8.54
2019-04-07T03:59:21.440Z,8.68
2019-04-07T04:02:26.341Z,8.84
2019-04-07T04:05:35.933Z,8.94
2019-04-07T04:08:53.018Z,8.94
2019-04-07T04:11:47.693Z,8.79
2019-04-07T04:14:45.547Z,8.55
2019-04-07T04:17:34.805Z,8.47
2019-04-07T04:20:24.099Z,8.57
2019-04-07T04:23:14.440Z,8.57
2019-04-07T04:26:04.400Z,8.51
2019-04-07T04:28:52.692Z,8.51
2019-04-07T04:31:40.817Z,8.59
2019-04-07T04:34:28.951Z,8.61
2019-04-07T04:37:33.271Z,8.43
2019-04-07T04:40:09.324Z,8.29
2019-04-07T04:42:58.340Z,8.29
2019-04-07T04:45:48.304Z,8.29
2019-04-07T04:48:37.489Z,8.11
2019-04-07T04:51:26.195Z,8.05
2019-04-07T04:54:15.065Z,8.15
2019-04-07T04:57:06.439Z,8.25
2019-04-07T04:59:54.038Z,8.39
2019-04-07T05:02:43.526Z,8.44
2019-04-07T05:05:33.418Z,8.44
2019-04-07T05:08:21.806Z,8.47
2019-04-07T05:11:10.849Z,8.46
2019-04-07T05:14:00.292Z,8.49
2019-04-07T05:16:48.447Z,8.53
2019-04-07T05:19:37.378Z,8.50
2019-04-07T05:22:25.791Z,8.50
2019-04-07T05:25:14.573Z,8.17
2019-04-07T05:28:03.711Z,7.84
2019-04-07T05:30:51.880Z,7.59
2019-04-07T05:33:41.124Z,7.62
2019-04-07T05:36:30.353Z,7.66
2019-04-07T05:39:19.067Z,7.66
2019-04-07T05:42:08.037Z,7.47
2019-04-07T05:44:56.119Z,7.27
2019-04-07T05:47:48.645Z,7.27
2019-04-07T05:50:34.992Z,7.57
2019-04-07T05:53:23.504Z,7.15
2019-04-07T05:56:12.267Z,7.14
2019-04-07T05:59:01.719Z,7.40
2019-04-07T06:01:52.501Z,7.68
2019-04-07T06:04:40.412Z,7.90
2019-04-07T06:07:31.791Z,7.95
2019-04-07T06:10:22.325Z,7.86
2019-04-07T06:13:12.922Z,7.87
2019-04-07T06:16:00.049Z,7.95
2019-04-07T06:18:48.455Z,8.08
2019-04-07T06:21:37.830Z,8.31
2019-04-07T06:24:31.625Z,8.34
2019-04-07T06:27:17.850Z,8.44
2019-04-07T06:30:08.475Z,8.52
2019-04-07T06:32:56.986Z,7.96
2019-04-07T06:35:47.314Z,8.03
2019-04-07T06:38:41.536Z,8.12
2019-04-07T06:41:30.068Z,8.37
2019-04-07T06:44:19.802Z,8.64
2019-04-07T06:47:11.949Z,8.77
2019-04-07T06:50:20.599Z,8.50
2019-04-07T06:53:24.565Z,8.56
2019-04-07T06:56:25.976Z,8.39
2019-04-07T06:59:22.945Z,8.43
2019-04-07T07:02:31.661Z,8.66
2019-04-07T07:05:36.242Z,8.81
2019-04-07T07:08:45.765Z,8.87
2019-04-07T07:11:53.998Z,8.83
2019-04-07T07:14:53.852Z,8.98
2019-04-07T07:17:50.822Z,9.14
2019-04-07T07:21:05.018Z,9.37
2019-04-07T07:23:53.754Z,9.36
2019-04-07T07:26:42.888Z,9.60
2019-04-07T07:29:33.726Z,9.60
2019-04-07T07:32:22.761Z,9.72
2019-04-07T07:35:15.029Z,9.85
2019-04-07T07:38:02.774Z,9.91
2019-04-07T07:40:54.351Z,9.82
2019-04-07T07:43:43.555Z,9.70
2019-04-07T07:46:32.378Z,9.79
2019-04-07T07:49:21.430Z,10.04
2019-04-07T07:52:11.634Z,10.08
2019-04-07T07:55:02.550Z,9.86
2019-04-07T07:57:54.153Z,9.93
2019-04-07T08:00:43.371Z,10.19
2019-04-07T08:03:32.519Z,10.39
2019-04-07T08:06:21.568Z,10.41
2019-04-07T08:09:14.932Z,10.44
2019-04-07T08:12:02.446Z,10.45
2019-04-07T08:14:55.077Z,10.41
2019-04-07T08:17:41.050Z,10.58
2019-04-07T08:20:30.636Z,10.57
2019-04-07T08:23:19.823Z,10.46
2019-04-07T08:26:11.721Z,10.60
2019-04-07T08:29:03.248Z,10.64
2019-04-07T08:31:54.836Z,10.61
2019-04-07T08:34:41.542Z,10.64
2019-04-07T08:37:30.890Z,10.65
2019-04-07T08:40:19.934Z,11.00
2019-04-07T08:43:08.930Z,11.08
2019-04-07T08:45:58.044Z,11.23
2019-04-07T08:48:49.710Z,11.43
2019-04-07T08:51:37.238Z,11.59
2019-04-07T08:54:26.599Z,11.69
2019-04-07T08:57:16.317Z,11.61
2019-04-07T09:00:13.163Z,11.77
2019-04-07T09:03:03.703Z,11.70
2019-04-07T09:05:48.557Z,11.88
2019-04-07T09:08:39.055Z,11.98
2019-04-07T09:11:28.214Z,12.24
2019-04-07T09:14:17.620Z,12.55
2019-04-07T09:17:44.508Z,12.62
2019-04-07T09:20:44.927Z,12.74
2019-04-07T09:23:58.130Z,12.74
2019-04-07T09:26:55.699Z,12.86
2019-04-07T09:30:02.469Z,12.84
2019-04-07T09:33:00.272Z,12.86
2019-04-07T09:36:10.181Z,12.90
2019-04-07T09:39:52.903Z,13.07
2019-04-07T09:42:57.380Z,13.20
2019-04-07T09:46:03.546Z,13.21
2019-04-07T09:49:21.273Z,13.50
2019-04-07T09:52:19.052Z,13.50
2019-04-07T09:55:27.657Z,13.67
2019-04-07T09:58:30.881Z,13.40
2019-04-07T10:01:45.022Z,13.15
2019-04-07T10:04:56.372Z,13.01
2019-04-07T10:08:05.618Z,13.08
2019-04-07T10:11:22.879Z,13.35
2019-04-07T10:14:29.600Z,13.49
2019-04-07T10:17:45.204Z,13.22
2019-04-07T10:20:51.743Z,12.98
2019-04-07T10:23:59.495Z,13.08
2019-04-07T10:27:10.857Z,13.25
2019-04-07T10:30:17.872Z,13.18
2019-04-07T10:33:18.045Z,13.18
2019-04-07T10:36:29.324Z,13.26
2019-04-07T10:39:40.042Z,13.17
2019-04-07T10:42:55.345Z,13.29
2019-04-07T10:45:54.886Z,13.48
2019-04-07T10:52:07.147Z,13.80
2019-04-07T10:55:09.804Z,13.86
2019-04-07T10:58:09.075Z,13.75
2019-04-07T11:01:15.787Z,13.70
2019-04-07T11:04:23.005Z,13.70
2019-04-07T11:07:29.695Z,13.75
2019-04-07T11:10:39.383Z,13.96
2019-04-07T11:13:51.625Z,14.23
2019-04-07T11:17:06.419Z,14.36
2019-04-07T11:20:10.418Z,14.20
2019-04-07T11:23:08.495Z,13.98
2019-04-07T11:26:11.274Z,14.07
2019-04-07T11:29:08.515Z,14.12
2019-04-07T11:32:04.070Z,14.12
2019-04-07T11:35:18.247Z,13.83
2019-04-07T11:38:35.420Z,13.97
2019-04-07T11:41:39.182Z,14.39
2019-04-07T11:44:35.651Z,14.75
2019-04-07T11:47:41.620Z,15.06
2019-04-07T11:50:40.712Z,15.09
2019-04-07T11:53:44.491Z,14.67
2019-04-07T11:56:41.711Z,14.62
2019-04-07T12:00:08.647Z,15.02
2019-04-07T12:03:28.982Z,14.93
2019-04-07T12:06:48.833Z,14.77
2019-04-07T12:10:01.630Z,15.13
2019-04-07T12:13:09.041Z,15.07
2019-04-07T12:17:00.202Z,14.89
2019-04-07T12:20:08.232Z,15.11
2019-04-07T12:23:06.450Z,15.29
2019-04-07T12:26:05.202Z,15.73
2019-04-07T12:29:22.248Z,15.93
2019-04-07T12:32:28.154Z,15.99
2019-04-07T12:35:39.379Z,15.99
2019-04-07T12:38:47.783Z,16.37
2019-04-07T12:41:57.239Z,16.80
2019-04-07T12:44:53.897Z,17.34
2019-04-07T12:47:57.121Z,17.43
2019-04-07T12:51:19.848Z,17.32
2019-04-07T12:54:15.708Z,17.38
2019-04-07T12:57:23.006Z,17.52
2019-04-07T13:00:24.983Z,17.85
2019-04-07T13:03:42.501Z,17.65
2019-04-07T13:06:46.928Z,17.91
2019-04-07T13:10:07.398Z,17.78
2019-04-07T13:13:05.795Z,17.64
2019-04-07T13:16:29.519Z,18.17
2019-04-07T13:19:28.694Z,18.72
2019-04-07T13:22:42.721Z,18.98
2019-04-07T13:25:38.574Z,18.91
2019-04-07T13:28:58.945Z,18.32
2019-04-07T13:32:06.189Z,18.53
2019-04-07T13:35:04.377Z,18.77
2019-04-07T13:38:12.158Z,19.30
2019-04-07T13:41:37.227Z,19.35
2019-04-07T13:44:27.184Z,20.03
2019-04-07T13:47:44.844Z,20.64
2019-04-07T13:50:52.533Z,21.17
2019-04-07T13:53:49.283Z,20.78
2019-04-07T13:57:00.342Z,21.51
2019-04-07T14:00:07.275Z,21.79
2019-04-07T14:03:14.624Z,22.10
2019-04-07T14:06:22.233Z,22.27
2019-04-07T14:09:32.331Z,22.40
2019-04-07T14:12:44.414Z,22.06
2019-04-07T14:16:04.274Z,22.45
2019-04-07T14:19:07.708Z,22.78
2019-04-07T14:22:15.526Z,23.52
2019-04-07T14:25:23.458Z,23.66
2019-04-07T14:28:24.490Z,24.32
2019-04-07T14:31:31.391Z,23.94
2019-04-07T14:34:42.840Z,22.49
2019-04-07T14:37:44.345Z,23.59
2019-04-07T14:40:55.296Z,25.24
2019-04-07T14:44:06.974Z,26.28
2019-04-07T14:47:06.503Z,25.65
2019-04-07T14:50:26.536Z,24.08
2019-04-07T14:53:30.273Z,25.67
2019-04-07T14:56:28.491Z,26.93
2019-04-07T14:59:36.556Z,25.63
2019-04-07T15:02:25.219Z,24.74
2019-04-07T15:05:21.822Z,24.65
2019-04-07T15:08:30.324Z,24.46
2019-04-07T15:11:26.985Z,25.03
2019-04-07T15:14:15.608Z,24.47
2019-04-07T15:17:04.694Z,25.64
2019-04-07T15:19:54.090Z,25.29
2019-04-07T15:22:45.907Z,25.93
2019-04-07T15:25:33.082Z,25.79
2019-04-07T15:28:22.575Z,26.79
2019-04-07T15:31:11.737Z,25.60
2019-04-07T15:34:00.931Z,26.20
2019-04-07T15:36:52.444Z,26.27
2019-04-07T15:39:41.658Z,26.08
2019-04-07T15:42:40.349Z,26.87
2019-04-07T15:45:21.641Z,25.92
2019-04-07T15:48:10.719Z,25.02
2019-04-07T15:51:04.621Z,24.29
2019-04-07T15:53:53.155Z,24.48
2019-04-07T15:56:42.366Z,24.71
2019-04-07T15:59:31.440Z,25.05
2019-04-07T16:02:19.982Z,24.30
2019-04-07T16:05:10.488Z,24.41
2019-04-07T16:07:59.632Z,23.92
2019-04-07T16:10:52.072Z,23.31
2019-04-07T16:13:40.971Z,23.18
2019-04-07T16:16:30.760Z,22.55
2019-04-07T16:19:28.689Z,23.00
2019-04-07T16:22:12.497Z,22.87
2019-04-07T16:25:00.684Z,22.52
2019-04-07T16:27:51.111Z,21.75
2019-04-07T16:30:40.683Z,21.12
2019-04-07T16:33:34.699Z,19.73
2019-04-07T16:36:20.014Z,19.65
2019-04-07T16:39:10.094Z,19.34
2019-04-07T16:41:59.110Z,19.16
2019-04-07T16:44:48.374Z,19.29
2019-04-07T16:47:38.242Z,19.52
2019-04-07T16:50:28.212Z,19.64
2019-04-07T16:53:17.236Z,19.69
2019-04-07T16:56:08.069Z,19.66
2019-04-07T16:58:56.911Z,19.63
2019-04-07T17:01:49.781Z,19.48
2019-04-07T17:04:41.025Z,19.20
2019-04-07T17:07:30.639Z,19.09
2019-04-07T17:10:19.740Z,18.97
2019-04-07T17:13:17.880Z,18.94
2019-04-07T17:16:00.626Z,18.75
2019-04-07T17:18:51.099Z,18.70
2019-04-07T17:21:42.722Z,18.46
2019-04-07T17:24:31.308Z,18.37
2019-04-07T17:27:22.966Z,18.31
2019-04-07T17:30:18.219Z,18.27
2019-04-07T17:33:08.149Z,18.18
2019-04-07T17:35:58.121Z,18.09
2019-04-07T17:39:09.509Z,17.99
2019-04-07T17:42:00.392Z,17.91
2019-04-07T17:45:13.192Z,17.76
2019-04-07T17:48:21.344Z,17.60
2019-04-07T17:51:28.709Z,17.60
2019-04-07T17:54:34.976Z,17.50
2019-04-07T17:57:37.094Z,17.43
2019-04-07T18:00:47.541Z,17.33
2019-04-07T18:03:56.382Z,17.24
2019-04-07T18:07:08.191Z,17.09
2019-04-07T18:10:32.371Z,17.01
2019-04-07T18:13:47.171Z,16.94
2019-04-07T18:16:49.394Z,16.82
2019-04-07T18:19:49.122Z,16.71
2019-04-07T18:22:58.064Z,16.64
2019-04-07T18:26:04.187Z,16.51
2019-04-07T18:29:03.865Z,16.44
2019-04-07T18:32:12.079Z,16.31
2019-04-07T18:35:20.553Z,16.31
2019-04-07T18:38:16.150Z,16.23
2019-04-07T18:41:22.873Z,16.18
2019-04-07T18:44:40.382Z,16.14
2019-04-07T18:47:48.253Z,16.08
2019-04-07T18:50:55.754Z,16.08
2019-04-07T18:54:05.171Z,15.99
2019-04-07T18:57:27.210Z,15.95
2019-04-07T19:00:32.432Z,15.94
2019-04-07T19:03:45.329Z,15.96
2019-04-07T19:06:55.916Z,15.97
2019-04-07T19:10:09.511Z,15.95
2019-04-07T19:13:15.869Z,15.88
2019-04-07T19:16:24.654Z,15.78
2019-04-07T19:19:48.480Z,15.88
2019-04-07T19:23:02.834Z,15.89
2019-04-07T19:26:09.812Z,15.86
2019-04-07T19:29:10.013Z,15.71
2019-04-07T19:32:09.945Z,15.75
2019-04-07T19:35:20.659Z,15.84
2019-04-07T19:38:27.397Z,15.96
2019-04-07T19:41:38.266Z,15.98
2019-04-07T19:44:53.336Z,15.98
2019-04-07T19:48:11.479Z,15.39
2019-04-07T19:51:17.803Z,14.77
2019-04-07T19:54:31.862Z,14.17
2019-04-07T19:57:48.568Z,13.56
2019-04-07T20:01:01.223Z,13.39
2019-04-07T20:04:16.400Z,13.41
2019-04-07T20:07:14.625Z,13.12
2019-04-07T20:10:23.749Z,13.18
2019-04-07T20:13:41.008Z,12.93
2019-04-07T20:16:36.455Z,12.83
2019-04-07T20:19:53.601Z,12.68
2019-04-07T20:23:02.180Z,12.33
2019-04-07T20:26:23.017Z,12.18
2019-04-07T20:29:23.633Z,12.13
2019-04-07T20:32:26.674Z,12.20
2019-04-07T20:35:20.850Z,12.32
2019-04-07T20:38:42.186Z,12.38
2019-04-07T20:41:46.919Z,12.34
2019-04-07T20:45:02.410Z,12.13
2019-04-07T20:48:07.334Z,12.24
2019-04-07T20:51:18.769Z,12.17
2019-04-07T20:54:25.947Z,12.37
2019-04-07T20:57:26.400Z,12.17
2019-04-07T21:00:36.924Z,12.03
2019-04-07T21:03:39.149Z,11.99
2019-04-07T21:06:53.974Z,11.84
2019-04-07T21:10:14.126Z,11.91
2019-04-07T21:13:19.313Z,12.07
2019-04-07T21:16:43.074Z,11.89
2019-04-07T21:19:54.333Z,11.85
2019-04-07T21:23:00.667Z,11.94
2019-04-07T21:25:57.180Z,11.64
2019-04-07T21:29:09.032Z,11.62
2019-04-07T21:32:18.902Z,11.72
2019-04-07T21:35:39.500Z,11.76
2019-04-07T21:38:46.376Z,11.82
2019-04-07T21:41:54.171Z,11.87
2019-04-07T21:45:11.752Z,12.03
2019-04-07T21:48:22.465Z,11.94
2019-04-07T21:51:46.013Z,12.03
2019-04-07T21:54:56.453Z,12.07
2019-04-07T21:58:01.264Z,12.14
2019-04-07T22:00:55.408Z,12.24
2019-04-07T22:04:03.739Z,12.32
2019-04-07T22:07:24.996Z,12.35
2019-04-07T22:10:18.723Z,12.21
2019-04-07T22:13:06.736Z,12.26
2019-04-07T22:15:59.333Z,12.04
2019-04-07T22:18:47.048Z,12.11
2019-04-07T22:21:36.243Z,12.10
2019-04-07T22:24:26.323Z,12.13
2019-04-07T22:27:17.571Z,11.87
2019-04-07T22:30:09.141Z,11.77
2019-04-07T22:32:57.387Z,11.65
2019-04-07T22:35:46.225Z,11.61
2019-04-07T22:38:34.594Z,11.71
2019-04-07T22:41:24.963Z,11.53
2019-04-07T22:44:13.782Z,11.63
2019-04-07T22:47:02.929Z,11.51
2019-04-07T22:49:52.683Z,11.63
2019-04-07T22:52:42.046Z,11.41
2019-04-07T22:55:31.218Z,11.50
2019-04-07T22:58:20.302Z,11.55
2019-04-07T23:01:09.176Z,11.25
2019-04-07T23:03:58.122Z,11.25
2019-04-07T23:06:47.904Z,11.21
2019-04-07T23:09:37.050Z,11.29
2019-04-07T23:12:26.571Z,11.17
2019-04-07T23:15:16.587Z,10.98
2019-04-07T23:18:05.438Z,11.07
2019-04-07T23:20:54.234Z,11.21
2019-04-07T23:23:42.614Z,11.39
2019-04-07T23:26:32.044Z,11.32
2019-04-07T23:29:21.865Z,11.25
2019-04-07T23:32:11.429Z,11.18
2019-04-07T23:35:00.730Z,11.01
2019-04-07T23:37:49.826Z,10.96
2019-04-07T23:40:38.552Z,10.74
2019-04-07T23:43:27.568Z,10.78
2019-04-07T23:46:23.155Z,10.86
2019-04-07T23:49:06.503Z,10.82
2019-04-07T23:51:55.407Z,10.65
2019-04-07T23:54:43.991Z,10.80
2019-04-07T23:57:33.069Z,10.93
